createdAt,value
2023-03-16T00:00:44.379Z,17.30
2023-03-16T00:03:21.001Z,17.30
2023-03-16T00:05:57.878Z,17.40
2023-03-16T00:08:28.938Z,17.40
2023-03-16T00:11:00.103Z,17.50
2023-03-16T00:13:32.060Z,17.50
2023-03-16T00:16:07.554Z,17.60
2023-03-16T00:18:42.500Z,17.60
2023-03-16T00:21:15.016Z,17.70
2023-03-16T00:23:45.936Z,17.80
2023-03-16T00:26:16.793Z,17.90
2023-03-16T00:28:47.773Z,17.90
2023-03-16T00:31:18.920Z,18.00
2023-03-16T00:33:49.753Z,18.00
2023-03-16T00:36:23.464Z,18.00
2023-03-16T00:38:55.932Z,18.20
2023-03-16T00:41:27.945Z,18.30
2023-03-16T00:43:58.950Z,18.30
2023-03-16T00:46:29.871Z,18.40
2023-03-16T00:49:00.944Z,18.40
2023-03-16T00:51:38.185Z,18.40
2023-03-16T00:54:09.302Z,18.50
2023-03-16T00:56:40.436Z,18.50
2023-03-16T00:59:11.514Z,18.70
2023-03-16T01:01:43.574Z,18.80
2023-03-16T01:04:15.261Z,18.90
2023-03-16T01:06:46.128Z,18.90
2023-03-16T01:09:18.198Z,18.80
2023-03-16T01:11:55.133Z,18.70
2023-03-16T01:14:25.836Z,18.90
2023-03-16T01:16:56.960Z,19.10
2023-03-16T01:19:29.561Z,19.20
2023-03-16T01:22:00.706Z,19.20
2023-03-16T01:24:31.931Z,19.30
2023-03-16T01:27:04.157Z,19.30
2023-03-16T01:29:35.715Z,19.30
2023-03-16T01:32:09.563Z,19.40
2023-03-16T01:34:41.030Z,19.50
2023-03-16T01:37:13.080Z,19.50
2023-03-16T01:39:59.394Z,19.70
2023-03-16T01:42:31.669Z,19.70
2023-03-16T01:45:06.876Z,19.80
2023-03-16T01:47:41.335Z,19.90
2023-03-16T01:50:19.645Z,19.90
2023-03-16T01:52:50.685Z,20.00
2023-03-16T01:55:21.678Z,20.00
2023-03-16T01:57:52.684Z,20.10
2023-03-16T02:00:32.862Z,20.10
2023-03-16T02:03:20.532Z,20.20
2023-03-16T02:06:20.459Z,20.20
2023-03-16T02:08:59.032Z,20.20
2023-03-16T02:11:31.348Z,20.20
2023-03-16T02:14:13.305Z,20.20
2023-03-16T02:16:46.604Z,20.30
2023-03-16T02:19:36.903Z,20.30
2023-03-16T02:22:11.693Z,20.40
2023-03-16T02:24:43.418Z,20.40
2023-03-16T02:27:26.719Z,20.40
2023-03-16T02:30:01.419Z,20.60
2023-03-16T02:32:39.934Z,20.70
2023-03-16T02:35:12.622Z,20.70
2023-03-16T02:37:44.623Z,20.90
2023-03-16T02:43:23.623Z,21.00
2023-03-16T02:46:07.469Z,21.10
2023-03-16T02:48:47.888Z,21.20
2023-03-16T02:51:29.388Z,21.30
2023-03-16T02:54:01.317Z,21.40
2023-03-16T02:56:57.628Z,21.50
2023-03-16T02:59:30.187Z,21.60
2023-03-16T03:02:04.731Z,21.60
2023-03-16T03:04:35.971Z,21.40
2023-03-16T03:07:10.393Z,21.60
2023-03-16T03:09:59.420Z,21.80
2023-03-16T03:12:30.818Z,21.90
2023-03-16T03:15:02.124Z,22.00
2023-03-16T03:17:39.931Z,22.10
2023-03-16T03:20:17.115Z,22.10
2023-03-16T03:22:54.159Z,22.00
2023-03-16T03:25:26.425Z,22.30
2023-03-16T03:28:07.640Z,22.50
2023-03-16T03:30:39.307Z,22.60
2023-03-16T03:33:11.163Z,22.50
2023-03-16T03:35:43.826Z,22.60
2023-03-16T03:38:15.142Z,22.70
2023-03-16T03:40:50.522Z,22.80
2023-03-16T03:43:23.926Z,22.90
2023-03-16T03:46:02.273Z,22.90
2023-03-16T03:48:36.626Z,22.90
2023-03-16T03:51:08.270Z,22.90
2023-03-16T03:54:08.758Z,22.80
2023-03-16T03:56:51.060Z,22.80
2023-03-16T03:59:24.208Z,22.80
2023-03-16T04:02:01.614Z,22.80
2023-03-16T04:04:43.997Z,22.80
2023-03-16T04:07:17.061Z,22.80
2023-03-16T04:09:49.668Z,22.60
2023-03-16T04:12:40.241Z,22.60
2023-03-16T04:15:28.286Z,22.50
2023-03-16T04:18:10.169Z,22.50
2023-03-16T04:20:41.224Z,22.60
2023-03-16T04:23:13.158Z,22.50
2023-03-16T04:25:47.031Z,22.40
2023-03-16T04:28:20.464Z,22.50
2023-03-16T04:30:56.143Z,22.40
2023-03-16T04:33:34.152Z,22.40
2023-03-16T04:36:06.805Z,22.30
2023-03-16T04:38:43.043Z,22.40
2023-03-16T04:41:14.924Z,22.50
2023-03-16T04:43:54.104Z,22.80
2023-03-16T04:46:28.790Z,23.10
2023-03-16T04:49:02.403Z,23.20
2023-03-16T04:51:34.414Z,23.30
2023-03-16T04:54:33.251Z,23.40
2023-03-16T04:57:10.105Z,23.60
2023-03-16T05:00:13.583Z,23.50
2023-03-16T05:02:53.999Z,23.30
2023-03-16T05:05:25.730Z,23.50
2023-03-16T05:07:57.027Z,23.50
2023-03-16T05:10:31.166Z,23.40
2023-03-16T05:13:02.977Z,23.50
2023-03-16T05:15:34.973Z,23.50
2023-03-16T05:18:16.810Z,23.50
2023-03-16T05:20:48.194Z,23.50
2023-03-16T05:23:19.383Z,23.50
2023-03-16T05:25:55.513Z,23.40
2023-03-16T05:28:28.119Z,23.60
2023-03-16T05:31:06.268Z,23.50
2023-03-16T05:33:46.401Z,23.50
2023-03-16T05:36:21.823Z,23.50
2023-03-16T05:38:56.669Z,23.70
2023-03-16T05:41:41.400Z,23.40
2023-03-16T05:44:36.162Z,23.40
2023-03-16T05:47:16.976Z,23.50
2023-03-16T05:49:53.466Z,23.60
2023-03-16T05:52:30.198Z,23.60
2023-03-16T05:55:07.205Z,23.70
2023-03-16T05:57:39.858Z,23.80
2023-03-16T06:00:17.763Z,23.80
2023-03-16T06:02:55.691Z,24.00
2023-03-16T06:05:45.212Z,24.00
2023-03-16T06:08:18.821Z,23.80
2023-03-16T06:10:55.762Z,23.80
2023-03-16T06:13:27.063Z,23.90
2023-03-16T06:16:18.437Z,23.80
2023-03-16T06:18:49.795Z,23.80
2023-03-16T06:21:21.310Z,23.80
2023-03-16T06:24:01.261Z,23.70
2023-03-16T06:26:34.956Z,23.90
2023-03-16T06:29:09.143Z,23.80
2023-03-16T06:31:43.128Z,23.70
2023-03-16T06:34:15.478Z,23.60
2023-03-16T06:36:47.110Z,23.70
2023-03-16T06:39:18.943Z,23.60
2023-03-16T06:41:53.116Z,23.60
2023-03-16T06:44:25.756Z,23.70
2023-03-16T06:47:31.850Z,23.70
2023-03-16T06:50:02.987Z,23.80
2023-03-16T06:52:34.386Z,23.70
2023-03-16T06:55:05.647Z,23.50
2023-03-16T06:58:00.016Z,23.70
2023-03-16T07:00:32.498Z,23.90
2023-03-16T07:03:04.297Z,23.90
2023-03-16T07:05:36.936Z,23.70
2023-03-16T07:08:08.986Z,23.50
2023-03-16T07:10:40.376Z,23.30
2023-03-16T07:13:11.252Z,23.20
2023-03-16T07:16:04.234Z,23.00
2023-03-16T07:18:45.812Z,23.10
2023-03-16T07:21:19.942Z,23.10
2023-03-16T07:26:58.985Z,23.10
2023-03-16T07:29:35.623Z,23.00
2023-03-16T07:32:08.565Z,23.10
2023-03-16T07:34:43.417Z,23.10
2023-03-16T07:37:24.985Z,23.10
2023-03-16T07:40:02.503Z,23.00
2023-03-16T07:42:34.129Z,23.00
2023-03-16T07:45:19.452Z,22.80
2023-03-16T07:47:50.820Z,22.70
2023-03-16T07:50:39.903Z,22.50
2023-03-16T07:53:11.993Z,22.60
2023-03-16T07:55:45.981Z,22.50
2023-03-16T07:58:20.132Z,22.40
2023-03-16T08:00:59.111Z,22.20
2023-03-16T08:03:31.476Z,22.20
2023-03-16T08:06:02.678Z,22.20
2023-03-16T08:08:34.430Z,22.10
2023-03-16T08:11:05.446Z,22.20
2023-03-16T08:14:01.461Z,22.00
2023-03-16T08:16:52.316Z,22.20
2023-03-16T08:19:23.567Z,22.20
2023-03-16T08:22:01.575Z,22.20
2023-03-16T08:24:41.290Z,22.30
2023-03-16T08:27:14.948Z,22.40
2023-03-16T08:29:53.466Z,22.40
2023-03-16T08:32:27.755Z,22.40
2023-03-16T08:35:01.541Z,22.50
2023-03-16T08:37:32.831Z,22.80
2023-03-16T08:40:06.469Z,23.00
2023-03-16T08:42:37.505Z,23.20
2023-03-16T08:45:14.521Z,23.20
2023-03-16T08:47:48.103Z,23.00
2023-03-16T08:50:22.549Z,22.80
2023-03-16T08:52:54.906Z,22.60
2023-03-16T08:55:26.124Z,22.80
2023-03-16T08:57:57.332Z,22.90
2023-03-16T09:00:28.735Z,23.00
2023-03-16T09:03:01.417Z,22.90
2023-03-16T09:05:33.862Z,22.80
2023-03-16T09:08:06.407Z,22.80
2023-03-16T09:11:09.211Z,22.70
2023-03-16T09:13:41.962Z,22.70
2023-03-16T09:16:15.174Z,22.80
2023-03-16T09:18:47.232Z,22.70
2023-03-16T09:21:18.775Z,22.70
2023-03-16T09:23:50.790Z,22.60
2023-03-16T09:26:22.876Z,22.50
2023-03-16T09:28:55.962Z,22.50
2023-03-16T09:31:28.724Z,22.50
2023-03-16T09:34:01.232Z,22.40
2023-03-16T09:36:33.109Z,22.30
2023-03-16T09:39:05.504Z,22.30
2023-03-16T09:41:51.529Z,22.30
2023-03-16T09:44:35.999Z,22.30
2023-03-16T09:47:14.604Z,22.10
2023-03-16T09:49:49.948Z,22.10
2023-03-16T09:52:31.858Z,22.00
2023-03-16T09:55:10.425Z,21.90
2023-03-16T09:57:48.685Z,22.00
2023-03-16T10:00:25.409Z,22.10
2023-03-16T10:03:13.682Z,21.90
2023-03-16T10:05:45.135Z,21.90
2023-03-16T10:08:26.118Z,21.90
2023-03-16T10:11:13.121Z,21.90
2023-03-16T10:14:00.318Z,21.90
2023-03-16T10:16:41.764Z,21.80
2023-03-16T10:19:31.777Z,21.70
2023-03-16T10:22:13.636Z,21.50
2023-03-16T10:25:05.805Z,21.60
2023-03-16T10:27:42.013Z,21.60
2023-03-16T10:30:24.708Z,21.40
2023-03-16T10:33:04.527Z,21.40
2023-03-16T10:35:51.135Z,21.50
2023-03-16T10:38:42.718Z,21.50
2023-03-16T10:41:25.475Z,21.30
2023-03-16T10:44:23.561Z,21.30
2023-03-16T10:47:09.790Z,21.30
2023-03-16T10:49:53.751Z,21.30
2023-03-16T10:52:45.216Z,21.30
2023-03-16T10:55:27.007Z,21.20
2023-03-16T10:58:03.063Z,21.20
2023-03-16T11:00:48.144Z,21.20
2023-03-16T11:03:34.837Z,21.20
2023-03-16T11:06:32.021Z,21.10
2023-03-16T11:09:20.033Z,21.00
2023-03-16T11:12:42.119Z,21.00
2023-03-16T11:15:25.898Z,20.90
2023-03-16T11:18:00.924Z,21.00
2023-03-16T11:20:38.753Z,20.90
2023-03-16T11:23:18.197Z,20.80
2023-03-16T11:25:55.252Z,20.90
2023-03-16T11:28:41.827Z,20.90
2023-03-16T11:31:44.864Z,20.90
2023-03-16T11:34:21.064Z,20.80
2023-03-16T11:37:19.153Z,20.70
2023-03-16T11:40:18.039Z,20.70
2023-03-16T11:43:05.230Z,20.70
2023-03-16T11:46:18.547Z,20.70
2023-03-16T11:49:11.375Z,20.70
2023-03-16T11:51:53.561Z,20.60
2023-03-16T11:54:57.597Z,20.60
2023-03-16T11:57:58.193Z,20.50
2023-03-16T12:00:33.522Z,20.60
2023-03-16T12:03:35.714Z,20.60
2023-03-16T12:06:40.119Z,20.60
2023-03-16T12:09:33.334Z,20.50
2023-03-16T12:12:49.533Z,20.50
2023-03-16T12:15:56.656Z,20.50
2023-03-16T12:18:53.391Z,20.30
2023-03-16T12:21:50.766Z,20.50
2023-03-16T12:24:47.330Z,20.50
2023-03-16T12:27:41.637Z,20.40
2023-03-16T12:30:29.213Z,20.40
2023-03-16T12:33:40.650Z,20.30
2023-03-16T12:36:42.944Z,20.30
2023-03-16T12:39:52.681Z,20.30
2023-03-16T12:43:03.703Z,20.30
2023-03-16T12:45:44.654Z,20.20
2023-03-16T12:48:21.367Z,20.30
2023-03-16T12:50:57.454Z,20.20
2023-03-16T12:53:45.830Z,20.20
2023-03-16T12:56:40.535Z,20.30
2023-03-16T12:59:24.590Z,20.20
2023-03-16T13:02:08.641Z,20.20
2023-03-16T13:04:52.800Z,20.20
2023-03-16T13:07:31.675Z,20.10
2023-03-16T13:10:14.880Z,20.20
2023-03-16T13:12:49.655Z,20.10
2023-03-16T13:15:41.619Z,20.10
2023-03-16T13:18:19.656Z,20.10
2023-03-16T13:21:24.888Z,20.00
2023-03-16T13:24:25.558Z,20.10
2023-03-16T13:27:26.263Z,20.10
2023-03-16T13:30:03.942Z,20.10
2023-03-16T13:33:04.539Z,20.00
2023-03-16T13:35:56.874Z,20.00
2023-03-16T13:38:34.477Z,20.00
2023-03-16T13:41:14.171Z,20.00
2023-03-16T13:43:46.678Z,20.00
2023-03-16T13:46:30.661Z,20.00
2023-03-16T13:49:03.269Z,19.90
2023-03-16T13:51:40.546Z,20.00
2023-03-16T13:54:27.524Z,19.90
2023-03-16T13:57:19.485Z,19.90
2023-03-16T13:59:59.560Z,20.00
2023-03-16T14:02:47.372Z,19.70
2023-03-16T14:05:28.993Z,19.90
2023-03-16T14:08:07.380Z,19.80
2023-03-16T14:10:42.147Z,19.90
2023-03-16T14:13:38.001Z,20.00
2023-03-16T14:16:21.743Z,20.00
2023-03-16T14:19:03.992Z,19.80
2023-03-16T14:21:37.351Z,19.70
2023-03-16T14:24:22.060Z,19.80
2023-03-16T14:26:55.835Z,19.80
2023-03-16T14:29:37.319Z,19.90
2023-03-16T14:32:30.341Z,19.80
2023-03-16T14:35:24.828Z,19.80
2023-03-16T14:37:58.899Z,19.80
2023-03-16T14:40:37.097Z,19.80
2023-03-16T14:43:35.096Z,19.70
2023-03-16T14:46:09.577Z,19.70
2023-03-16T14:48:43.210Z,19.70
2023-03-16T14:51:19.183Z,19.70
2023-03-16T14:53:53.969Z,19.70
2023-03-16T14:56:26.052Z,19.50
2023-03-16T14:59:20.396Z,19.60
2023-03-16T15:04:43.944Z,19.40
2023-03-16T15:07:35.232Z,19.40
2023-03-16T15:10:15.133Z,19.60
2023-03-16T15:12:58.726Z,19.60
2023-03-16T15:15:35.591Z,19.50
2023-03-16T15:18:09.603Z,19.50
2023-03-16T15:20:47.308Z,19.50
2023-03-16T15:23:20.625Z,19.40
2023-03-16T15:26:28.992Z,19.40
2023-03-16T15:29:21.673Z,19.50
2023-03-16T15:34:59.679Z,19.60
2023-03-16T15:37:51.538Z,19.50
2023-03-16T15:40:34.733Z,19.50
2023-03-16T15:45:59.249Z,19.50
2023-03-16T15:48:53.012Z,19.40
2023-03-16T15:51:52.894Z,19.50
2023-03-16T15:54:25.548Z,19.50
2023-03-16T15:57:01.886Z,19.50
2023-03-16T15:59:39.826Z,19.40
2023-03-16T16:02:53.558Z,19.40
2023-03-16T16:05:46.534Z,19.40
2023-03-16T16:08:38.864Z,19.40
2023-03-16T16:11:29.811Z,19.40
2023-03-16T16:14:42.426Z,19.40
2023-03-16T16:17:36.567Z,19.50
2023-03-16T16:20:26.912Z,19.50
2023-03-16T16:23:20.484Z,19.50
2023-03-16T16:25:53.927Z,19.40
2023-03-16T16:28:34.098Z,19.40
2023-03-16T16:31:14.048Z,19.40
2023-03-16T16:34:06.968Z,19.40
2023-03-16T16:37:20.385Z,19.40
2023-03-16T16:42:39.397Z,19.70
2023-03-16T16:45:36.683Z,19.60
2023-03-16T16:48:31.743Z,19.50
2023-03-16T16:51:03.729Z,19.40
2023-03-16T16:53:37.478Z,19.40
2023-03-16T16:56:19.902Z,19.40
2023-03-16T16:58:51.919Z,19.30
2023-03-16T17:01:34.959Z,19.10
2023-03-16T17:04:17.508Z,19.20
2023-03-16T17:06:57.223Z,19.30
2023-03-16T17:09:31.845Z,19.30
2023-03-16T17:12:07.314Z,19.20
2023-03-16T17:14:40.716Z,19.20
2023-03-16T17:17:19.860Z,19.20
2023-03-16T17:19:51.637Z,19.20
2023-03-16T17:22:30.183Z,19.10
2023-03-16T17:27:49.968Z,19.10
2023-03-16T17:30:27.715Z,18.90
2023-03-16T17:33:09.394Z,19.00
2023-03-16T17:35:43.068Z,19.00
2023-03-16T17:38:25.030Z,18.60
2023-03-16T17:40:58.785Z,19.00
2023-03-16T17:43:33.338Z,19.00
2023-03-16T17:46:09.119Z,19.00
2023-03-16T17:48:41.063Z,19.00
2023-03-16T17:51:18.712Z,19.00
2023-03-16T17:53:51.509Z,19.00
2023-03-16T17:56:29.850Z,19.00
2023-03-16T18:01:55.677Z,19.00
2023-03-16T18:04:29.632Z,19.10
2023-03-16T18:07:00.810Z,19.00
2023-03-16T18:09:33.136Z,19.10
2023-03-16T18:12:05.090Z,19.10
2023-03-16T18:14:40.048Z,19.00
2023-03-16T18:17:28.917Z,19.00
2023-03-16T18:20:01.468Z,19.00
2023-03-16T18:22:33.383Z,19.00
2023-03-16T18:25:22.199Z,19.00
2023-03-16T18:27:53.580Z,19.00
2023-03-16T18:30:24.692Z,18.90
2023-03-16T18:32:58.515Z,19.00
2023-03-16T18:35:49.678Z,19.00
2023-03-16T18:38:36.109Z,18.90
2023-03-16T18:41:29.834Z,18.90
2023-03-16T18:44:07.825Z,18.90
2023-03-16T18:46:40.941Z,18.90
2023-03-16T18:49:24.652Z,18.90
2023-03-16T18:51:57.791Z,18.80
2023-03-16T18:54:34.703Z,18.80
2023-03-16T18:57:12.725Z,18.90
2023-03-16T18:59:44.445Z,18.90
2023-03-16T19:02:43.248Z,18.90
2023-03-16T19:05:23.963Z,18.90
2023-03-16T19:07:56.550Z,18.90
2023-03-16T19:10:35.595Z,18.90
2023-03-16T19:13:18.652Z,18.90
2023-03-16T19:15:59.297Z,18.90
2023-03-16T19:18:32.415Z,18.80
2023-03-16T19:21:06.652Z,18.90
2023-03-16T19:23:40.785Z,18.90
2023-03-16T19:26:12.127Z,18.90
2023-03-16T19:28:47.696Z,19.00
2023-03-16T19:31:23.459Z,18.80
2023-03-16T19:33:56.106Z,18.80
2023-03-16T19:36:32.232Z,18.90
2023-03-16T19:39:05.820Z,18.90
2023-03-16T19:41:40.169Z,18.90
2023-03-16T19:44:27.508Z,18.90
2023-03-16T19:47:00.898Z,18.90
2023-03-16T19:49:34.002Z,18.90
2023-03-16T19:52:08.198Z,18.90
2023-03-16T19:54:42.037Z,18.90
2023-03-16T19:57:19.726Z,18.90
2023-03-16T20:00:00.246Z,18.90
2023-03-16T20:02:43.089Z,18.90
2023-03-16T20:05:23.415Z,18.80
2023-03-16T20:07:56.850Z,18.90
2023-03-16T20:10:32.308Z,18.80
2023-03-16T20:13:05.761Z,18.70
2023-03-16T20:15:39.335Z,18.60
2023-03-16T20:18:17.022Z,18.80
2023-03-16T20:20:53.136Z,18.80
2023-03-16T20:23:31.002Z,18.80
2023-03-16T20:26:03.283Z,18.70
2023-03-16T20:28:40.069Z,18.70
2023-03-16T20:31:24.721Z,18.80
2023-03-16T20:33:57.233Z,18.70
2023-03-16T20:36:29.479Z,18.80
2023-03-16T20:39:01.881Z,18.60
2023-03-16T20:41:34.525Z,18.70
2023-03-16T20:44:06.733Z,18.80
2023-03-16T20:46:40.379Z,18.80
2023-03-16T20:49:33.844Z,18.80
2023-03-16T20:52:13.599Z,18.60
2023-03-16T20:54:45.059Z,18.80
2023-03-16T20:57:28.788Z,18.80
2023-03-16T21:00:01.408Z,18.70
2023-03-16T21:02:41.397Z,18.70
2023-03-16T21:05:16.000Z,18.70
2023-03-16T21:07:48.381Z,18.70
2023-03-16T21:10:23.638Z,18.70
2023-03-16T21:12:58.720Z,18.50
2023-03-16T21:15:32.615Z,18.60
2023-03-16T21:18:04.934Z,18.60
2023-03-16T21:20:38.076Z,18.50
2023-03-16T21:23:19.622Z,18.60
2023-03-16T21:25:58.206Z,18.60
2023-03-16T21:28:31.826Z,18.40
2023-03-16T21:31:04.350Z,18.50
2023-03-16T21:33:41.299Z,18.40
2023-03-16T21:36:21.107Z,18.50
2023-03-16T21:38:53.189Z,18.50
2023-03-16T21:41:25.566Z,18.40
2023-03-16T21:44:03.064Z,18.40
2023-03-16T21:46:35.323Z,18.40
2023-03-16T21:49:07.329Z,18.20
2023-03-16T21:51:39.058Z,18.30
2023-03-16T21:54:16.369Z,18.20
2023-03-16T21:56:49.297Z,18.20
2023-03-16T21:59:23.420Z,18.10
2023-03-16T22:02:02.032Z,18.20
2023-03-16T22:04:33.910Z,18.10
2023-03-16T22:07:07.059Z,18.10
2023-03-16T22:09:38.444Z,18.10
2023-03-16T22:12:15.830Z,18.10
2023-03-16T22:14:47.719Z,17.90
2023-03-16T22:17:24.808Z,17.80
2023-03-16T22:19:56.419Z,17.90
2023-03-16T22:22:28.056Z,18.00
2023-03-16T22:24:59.828Z,18.00
2023-03-16T22:27:31.951Z,18.00
2023-03-16T22:30:03.603Z,18.00
2023-03-16T22:32:35.458Z,18.00
2023-03-16T22:35:07.478Z,18.00
2023-03-16T22:37:39.111Z,18.10
2023-03-16T22:40:20.348Z,18.10
2023-03-16T22:42:52.564Z,18.10
2023-03-16T22:45:27.371Z,18.10
2023-03-16T22:48:00.635Z,18.10
2023-03-16T22:50:36.450Z,18.10
2023-03-16T22:53:11.321Z,18.10
2023-03-16T22:55:43.975Z,18.10
2023-03-16T22:58:41.984Z,18.10
2023-03-16T23:01:25.026Z,18.10
2023-03-16T23:03:57.010Z,18.10
2023-03-16T23:06:31.638Z,18.10
2023-03-16T23:09:03.992Z,18.10
2023-03-16T23:11:38.742Z,18.10
2023-03-16T23:14:17.154Z,18.10
2023-03-16T23:16:49.799Z,18.20
2023-03-16T23:19:31.136Z,18.30
2023-03-16T23:22:07.607Z,18.30
2023-03-16T23:24:40.144Z,18.30
2023-03-16T23:27:25.542Z,18.30
2023-03-16T23:29:57.503Z,18.20
2023-03-16T23:32:30.247Z,18.30
2023-03-16T23:35:04.257Z,18.30
2023-03-16T23:37:36.633Z,18.30
2023-03-16T23:40:08.838Z,18.30
2023-03-16T23:42:41.285Z,18.30
2023-03-16T23:45:19.525Z,18.30
2023-03-16T23:47:52.277Z,18.20
2023-03-16T23:50:33.409Z,18.30
2023-03-16T23:53:06.396Z,18.30
2023-03-16T23:55:38.410Z,18.30
2023-03-16T23:58:10.535Z,18.30
